Archival Weather

Snohomish County (Paine Fld)

Everett, Washington (KPAE)

Report from: Monday, November 20, 2023 9:53 PM PST
Current time: Sunday, February 25, 2024 2:27 PM PST

Current weather – Weather history – Daily summaries
Weather forecast

Temperature8.3°C (46.9°F)
Wind chill6.8°C (44.2°F)
Dew point-0.6°C (30.9°F)
Winds 5 kts (2.6 m/s, 5.8 mph) East-Southeast (120°)
Visibility10 mi. (16.1 km)
Clouds Sky clear
Altimeter30.32 in.Hg (1027 mB)
Relative humidity53 %
Density altitude-1,185 ft. (-361 m)
Sea-level pressure102.7 kPa (1027 mB, 30.33 in.Hg)
Max temp last 6 hours8.9°C (48.0°F)
Min temp last 6 hours5.6°C (42.1°F)
Remarks Fully automated report
Automated weather observing station with precipitation discriminator
Pressure falling more quickly
Flight conditions Visual Meteorological Conditions
Raw dataKPAE 210553Z AUTO 12005KT 10SM CLR 08/M01 A3032 RMK AO2 SLP272 T00831006 10089 20056 58018
An error has occurred. This application may no longer respond until reloaded. Reload 🗙